createdAt,value
2022-12-12T00:02:16.898Z,1.25
2022-12-12T00:04:51.022Z,1.27
2022-12-12T00:07:20.176Z,1.29
2022-12-12T00:09:49.283Z,1.35
2022-12-12T00:12:18.898Z,1.18
2022-12-12T00:14:48.080Z,1.45
2022-12-12T00:17:24.372Z,1.27
2022-12-12T00:19:53.680Z,1.50
2022-12-12T00:22:22.933Z,1.50
2022-12-12T00:24:52.062Z,1.53
2022-12-12T00:27:21.180Z,1.62
2022-12-12T00:29:54.107Z,1.66
2022-12-12T00:32:26.606Z,1.69
2022-12-12T00:34:55.801Z,1.72
2022-12-12T00:37:25.004Z,1.74
2022-12-12T00:39:54.986Z,1.78
2022-12-12T00:42:26.842Z,1.78
2022-12-12T00:44:55.879Z,1.97
2022-12-12T00:47:33.601Z,1.81
2022-12-12T00:50:02.856Z,1.86
2022-12-12T00:52:32.891Z,1.89
2022-12-12T00:55:08.764Z,1.87
2022-12-12T00:57:38.009Z,1.84
2022-12-12T01:00:10.339Z,1.85
2022-12-12T01:02:41.570Z,1.85
2022-12-12T01:05:11.896Z,1.71
2022-12-12T01:07:41.382Z,1.94
2022-12-12T01:10:11.447Z,1.94
2022-12-12T01:12:40.728Z,1.98
2022-12-12T01:15:12.066Z,2.02
2022-12-12T01:17:44.419Z,2.03
2022-12-12T01:20:18.738Z,1.94
2022-12-12T01:22:53.945Z,2.00
2022-12-12T01:25:28.387Z,2.02
2022-12-12T01:30:37.108Z,2.04
2022-12-12T01:33:08.475Z,2.01
2022-12-12T01:35:37.819Z,2.07
2022-12-12T01:38:07.413Z,2.08
2022-12-12T01:40:41.695Z,2.10
2022-12-12T01:43:18.819Z,2.08
2022-12-12T01:46:20.479Z,2.16
2022-12-12T01:48:55.886Z,2.15
2022-12-12T01:51:28.016Z,1.90
2022-12-12T01:54:02.637Z,2.17
2022-12-12T01:56:33.093Z,1.92
2022-12-12T01:59:15.391Z,2.15
2022-12-12T02:01:50.686Z,2.17
2022-12-12T02:04:29.681Z,2.20
2022-12-12T02:06:59.644Z,2.19
2022-12-12T02:09:29.195Z,2.20
2022-12-12T02:11:59.445Z,2.01
2022-12-12T02:14:31.522Z,2.18
2022-12-12T02:17:31.092Z,2.17
2022-12-12T02:24:09.790Z,2.28
2022-12-12T02:27:08.443Z,2.27
2022-12-12T02:30:08.639Z,2.26
2022-12-12T02:32:59.489Z,2.25
2022-12-12T02:35:42.416Z,2.20
2022-12-12T02:38:22.601Z,2.23
2022-12-12T02:41:03.852Z,2.26
2022-12-12T02:43:40.836Z,2.25
2022-12-12T02:46:17.297Z,2.26
2022-12-12T02:49:01.274Z,2.26
2022-12-12T02:51:38.094Z,2.29
2022-12-12T02:54:15.796Z,2.25
2022-12-12T02:57:01.486Z,2.23
2022-12-12T02:59:34.458Z,2.24
2022-12-12T03:02:35.396Z,2.21
2022-12-12T03:05:34.065Z,2.24
2022-12-12T03:08:16.347Z,2.23
2022-12-12T03:10:55.012Z,2.29
2022-12-12T03:13:33.007Z,2.21
2022-12-12T03:16:14.584Z,2.26
2022-12-12T03:18:58.904Z,2.26
2022-12-12T03:21:39.411Z,2.14
2022-12-12T03:24:22.529Z,2.27
2022-12-12T03:27:00.644Z,2.22
2022-12-12T03:29:39.049Z,2.29
2022-12-12T03:32:13.664Z,2.12
2022-12-12T03:34:46.815Z,2.17
2022-12-12T03:37:25.083Z,2.29
2022-12-12T03:39:59.969Z,2.31
2022-12-12T03:42:40.047Z,2.35
2022-12-12T03:45:15.660Z,2.37
2022-12-12T03:47:51.493Z,2.35
2022-12-12T03:50:29.464Z,2.37
2022-12-12T03:53:05.230Z,2.30
2022-12-12T03:55:39.768Z,2.33
2022-12-12T03:58:21.212Z,2.33
2022-12-12T04:00:53.274Z,2.31
2022-12-12T04:03:29.928Z,2.32
2022-12-12T04:06:25.318Z,2.37
2022-12-12T04:09:13.008Z,2.35
2022-12-12T04:11:59.542Z,2.31
2022-12-12T04:14:48.348Z,2.20
2022-12-12T04:17:23.970Z,2.29
2022-12-12T04:20:10.440Z,2.33
2022-12-12T04:23:01.090Z,2.25
2022-12-12T04:25:58.040Z,2.28
2022-12-12T04:28:29.175Z,2.26
2022-12-12T04:31:04.086Z,2.28
2022-12-12T04:33:42.858Z,2.26
2022-12-12T04:36:15.266Z,2.05
2022-12-12T04:38:53.058Z,2.13
2022-12-12T04:41:26.496Z,2.11
2022-12-12T04:43:58.348Z,2.19
2022-12-12T04:46:30.733Z,2.21
2022-12-12T04:49:03.871Z,2.22
2022-12-12T04:51:47.074Z,2.23
2022-12-12T04:54:21.636Z,2.27
2022-12-12T04:56:56.291Z,2.22
2022-12-12T04:59:26.268Z,2.21
2022-12-12T05:02:01.413Z,2.13
2022-12-12T05:04:43.432Z,2.16
2022-12-12T05:07:18.705Z,2.18
2022-12-12T05:10:01.842Z,2.20
2022-12-12T05:12:41.445Z,2.28
2022-12-12T05:15:12.069Z,2.22
2022-12-12T05:17:49.528Z,2.12
2022-12-12T05:20:18.934Z,2.25
2022-12-12T05:22:48.063Z,2.32
2022-12-12T05:25:28.856Z,2.25
2022-12-12T05:28:00.164Z,2.19
2022-12-12T05:30:29.775Z,2.22
2022-12-12T05:33:04.906Z,2.14
2022-12-12T05:35:40.377Z,2.26
2022-12-12T05:38:09.812Z,2.25
2022-12-12T05:40:39.438Z,2.26
2022-12-12T05:43:16.854Z,2.15
2022-12-12T05:45:46.692Z,2.25
2022-12-12T05:48:27.378Z,2.29
2022-12-12T05:50:56.914Z,2.24
2022-12-12T05:53:26.054Z,2.28
2022-12-12T05:55:55.427Z,2.25
2022-12-12T05:58:26.567Z,2.26
2022-12-12T06:01:00.083Z,2.23
2022-12-12T06:03:32.651Z,2.24
2022-12-12T06:06:02.667Z,2.30
2022-12-12T06:08:37.127Z,2.28
2022-12-12T06:11:08.618Z,2.26
2022-12-12T06:13:42.195Z,2.23
2022-12-12T06:16:14.947Z,2.28
2022-12-12T06:18:44.208Z,2.30
2022-12-12T06:21:18.909Z,2.24
2022-12-12T06:23:48.236Z,2.25
2022-12-12T06:26:19.249Z,2.28
2022-12-12T06:28:55.526Z,2.28
2022-12-12T06:31:24.912Z,2.13
2022-12-12T06:33:54.063Z,2.14
2022-12-12T06:36:25.600Z,2.20
2022-12-12T06:38:56.471Z,2.20
2022-12-12T06:41:27.474Z,2.24
2022-12-12T06:43:58.772Z,2.21
2022-12-12T06:46:30.159Z,2.30
2022-12-12T06:49:01.295Z,2.37
2022-12-12T06:54:07.925Z,2.36
2022-12-12T06:56:40.977Z,2.37
2022-12-12T06:59:21.263Z,2.32
2022-12-12T07:01:57.336Z,2.29
2022-12-12T07:04:27.647Z,2.39
2022-12-12T07:06:57.759Z,2.39
2022-12-12T07:09:27.880Z,2.38
2022-12-12T07:11:57.085Z,2.38
2022-12-12T07:14:33.185Z,2.42
2022-12-12T07:17:02.302Z,2.38
2022-12-12T07:19:31.537Z,2.50
2022-12-12T07:22:07.479Z,2.51
2022-12-12T07:24:39.136Z,2.54
2022-12-12T07:27:09.000Z,2.45
2022-12-12T07:29:40.156Z,2.56
2022-12-12T07:32:14.429Z,2.50
2022-12-12T07:34:43.639Z,2.57
2022-12-12T07:37:12.663Z,2.38
2022-12-12T07:39:42.155Z,2.56
2022-12-12T07:42:11.227Z,2.52
2022-12-12T07:44:47.418Z,2.43
2022-12-12T07:47:16.672Z,2.53
2022-12-12T07:49:45.961Z,2.38
2022-12-12T07:52:15.145Z,2.48
2022-12-12T07:54:44.211Z,2.47
2022-12-12T07:57:13.602Z,2.51
2022-12-12T07:59:47.766Z,2.49
2022-12-12T08:02:19.078Z,2.52
2022-12-12T08:04:48.356Z,2.49
2022-12-12T08:07:18.789Z,2.50
2022-12-12T08:09:48.132Z,2.53
2022-12-12T08:12:17.164Z,2.50
2022-12-12T08:14:51.590Z,2.50
2022-12-12T08:17:22.843Z,2.48
2022-12-12T08:19:52.275Z,2.46
2022-12-12T08:22:22.561Z,2.48
2022-12-12T08:24:52.121Z,2.53
2022-12-12T08:27:21.751Z,2.44
2022-12-12T08:29:53.604Z,2.62
2022-12-12T08:32:24.387Z,2.70
2022-12-12T08:34:59.291Z,2.52
2022-12-12T08:37:33.476Z,2.55
2022-12-12T08:40:14.049Z,2.61
2022-12-12T08:42:43.268Z,2.49
2022-12-12T08:45:13.455Z,2.60
2022-12-12T08:47:50.286Z,2.64
2022-12-12T08:50:19.489Z,2.58
2022-12-12T08:52:48.605Z,2.59
2022-12-12T08:55:32.529Z,2.56
2022-12-12T08:58:01.840Z,2.63
2022-12-12T09:00:31.279Z,2.64
2022-12-12T09:03:02.626Z,2.60
2022-12-12T09:05:31.896Z,2.59
2022-12-12T09:08:01.112Z,2.61
2022-12-12T09:10:31.090Z,2.61
2022-12-12T09:13:00.240Z,2.63
2022-12-12T09:15:29.468Z,2.65
2022-12-12T09:17:58.573Z,2.66
2022-12-12T09:20:34.844Z,2.69
2022-12-12T09:23:09.009Z,2.58
2022-12-12T09:25:46.194Z,2.73
2022-12-12T09:28:17.283Z,2.78
2022-12-12T09:30:47.869Z,2.82
2022-12-12T09:33:22.304Z,2.82
2022-12-12T09:36:01.139Z,2.86
2022-12-12T09:38:30.851Z,2.89
2022-12-12T09:41:05.084Z,2.88
2022-12-12T09:43:38.709Z,2.89
2022-12-12T09:46:17.859Z,2.85
2022-12-12T09:48:48.576Z,2.70
2022-12-12T09:51:26.881Z,2.92
2022-12-12T09:54:01.530Z,2.85
2022-12-12T09:59:42.922Z,2.83
2022-12-12T10:02:38.990Z,2.89
2022-12-12T10:05:24.492Z,2.89
2022-12-12T10:08:04.439Z,2.84
2022-12-12T10:10:38.191Z,2.85
2022-12-12T10:13:14.317Z,2.85
2022-12-12T10:15:47.508Z,2.83
2022-12-12T10:18:20.910Z,2.84
2022-12-12T10:20:55.092Z,2.84
2022-12-12T10:23:34.528Z,2.86
2022-12-12T10:26:07.019Z,2.88
2022-12-12T10:28:37.285Z,2.89
2022-12-12T10:31:28.115Z,2.80
2022-12-12T10:34:07.910Z,2.90
2022-12-12T10:36:54.559Z,2.89
2022-12-12T10:39:37.607Z,2.80
2022-12-12T10:42:18.857Z,2.83
2022-12-12T10:45:01.847Z,2.71
2022-12-12T10:47:32.976Z,2.65
2022-12-12T10:50:22.416Z,2.75
2022-12-12T10:52:51.734Z,2.71
2022-12-12T10:55:24.963Z,2.73
2022-12-12T10:58:03.711Z,2.77
2022-12-12T11:00:35.563Z,2.76
2022-12-12T11:03:13.722Z,2.84
2022-12-12T11:05:48.856Z,2.69
2022-12-12T11:08:28.397Z,2.68
2022-12-12T11:11:06.340Z,2.63
2022-12-12T11:13:48.070Z,2.65
2022-12-12T11:16:24.902Z,2.62
2022-12-12T11:19:04.671Z,2.60
2022-12-12T11:24:31.647Z,2.61
2022-12-12T11:29:46.223Z,2.60
2022-12-12T11:32:18.282Z,2.61
2022-12-12T11:34:52.188Z,2.62
2022-12-12T11:37:26.311Z,2.65
2022-12-12T11:39:57.726Z,2.66
2022-12-12T11:42:31.342Z,2.59
2022-12-12T11:45:04.326Z,2.59
2022-12-12T11:47:40.424Z,2.58
2022-12-12T11:50:21.743Z,2.53
2022-12-12T11:52:53.146Z,2.52
2022-12-12T11:55:36.070Z,2.41
2022-12-12T11:58:18.797Z,2.54
2022-12-12T12:00:59.827Z,2.54
2022-12-12T12:03:53.744Z,2.50
2022-12-12T12:06:38.814Z,2.48
2022-12-12T12:09:26.319Z,2.49
2022-12-12T12:12:03.326Z,2.36
2022-12-12T12:14:50.435Z,2.30
2022-12-12T12:17:28.715Z,2.50
2022-12-12T12:20:12.369Z,2.29
2022-12-12T12:22:52.987Z,2.48
2022-12-12T12:25:32.233Z,2.54
2022-12-12T12:28:14.472Z,2.43
2022-12-12T12:30:59.042Z,2.37
2022-12-12T12:33:40.812Z,2.44
2022-12-12T12:36:21.481Z,2.38
2022-12-12T12:39:07.088Z,2.45
2022-12-12T12:41:46.616Z,2.35
2022-12-12T12:44:30.430Z,2.42
2022-12-12T12:47:12.130Z,2.30
2022-12-12T12:55:02.961Z,2.09
2022-12-12T12:57:36.967Z,2.03
2022-12-12T13:00:16.612Z,2.08
2022-12-12T13:02:55.698Z,2.14
2022-12-12T13:05:38.133Z,2.15
2022-12-12T13:08:17.258Z,2.23
2022-12-12T13:13:30.329Z,2.10
2022-12-12T13:16:04.293Z,2.14
2022-12-12T13:18:45.259Z,2.15
2022-12-12T13:24:12.329Z,2.07
2022-12-12T13:26:58.712Z,2.03
2022-12-12T13:29:36.988Z,1.85
2022-12-12T13:32:34.818Z,2.13
2022-12-12T13:35:11.676Z,2.19
2022-12-12T13:37:47.758Z,2.19
2022-12-12T13:40:27.347Z,2.14
2022-12-12T13:43:08.744Z,2.09
2022-12-12T13:45:42.627Z,2.00
2022-12-12T13:48:44.497Z,2.08
2022-12-12T13:51:42.450Z,2.15
2022-12-12T13:54:52.070Z,2.06
2022-12-12T13:57:33.809Z,1.93
2022-12-12T14:00:20.788Z,2.06
2022-12-12T14:03:01.959Z,2.03
2022-12-12T14:05:41.201Z,1.84
2022-12-12T14:08:23.222Z,1.91
2022-12-12T14:10:57.806Z,1.88
2022-12-12T14:13:44.815Z,1.97
2022-12-12T14:16:35.902Z,2.03
2022-12-12T14:19:08.662Z,2.03
2022-12-12T14:21:48.606Z,2.03
2022-12-12T14:24:48.333Z,1.92
2022-12-12T14:27:19.232Z,1.91
2022-12-12T14:29:48.572Z,1.80
2022-12-12T14:32:44.614Z,1.95
2022-12-12T14:35:33.351Z,1.85
2022-12-12T14:38:17.645Z,1.86
2022-12-12T14:40:54.250Z,1.94
2022-12-12T14:43:27.250Z,1.90
2022-12-12T14:46:00.158Z,1.87
2022-12-12T14:48:33.606Z,1.81
2022-12-12T14:51:08.715Z,1.90
2022-12-12T14:53:47.227Z,1.89
2022-12-12T14:56:18.741Z,1.85
2022-12-12T14:58:55.507Z,1.78
2022-12-12T15:01:33.728Z,1.85
2022-12-12T15:04:20.983Z,1.85
2022-12-12T15:06:53.260Z,1.77
2022-12-12T15:09:28.983Z,1.73
2022-12-12T15:12:14.141Z,1.75
2022-12-12T15:14:54.811Z,1.57
2022-12-12T15:17:29.181Z,1.75
2022-12-12T15:20:02.905Z,1.75
2022-12-12T15:22:35.621Z,1.74
2022-12-12T15:25:05.997Z,1.89
2022-12-12T15:27:45.384Z,1.79
2022-12-12T15:30:33.894Z,1.85
2022-12-12T15:33:05.067Z,1.81
2022-12-12T15:35:36.708Z,1.80
2022-12-12T15:38:14.630Z,1.81
2022-12-12T15:41:13.077Z,1.78
2022-12-12T15:43:49.019Z,1.77
2022-12-12T15:48:55.257Z,1.78
2022-12-12T15:51:31.625Z,1.78
2022-12-12T15:56:43.066Z,1.74
2022-12-12T15:59:27.892Z,1.77
2022-12-12T16:02:27.722Z,1.73
2022-12-12T16:05:00.453Z,1.57
2022-12-12T16:07:37.081Z,1.72
2022-12-12T16:10:23.507Z,1.77
2022-12-12T16:13:04.722Z,1.67
2022-12-12T16:15:37.257Z,1.73
2022-12-12T16:18:19.399Z,1.77
2022-12-12T16:20:50.048Z,1.81
2022-12-12T16:23:31.586Z,1.71
2022-12-12T16:26:01.320Z,1.68
2022-12-12T16:28:32.089Z,1.68
2022-12-12T16:31:03.173Z,1.65
2022-12-12T16:33:35.449Z,1.65
2022-12-12T16:36:06.429Z,1.62
2022-12-12T16:38:40.034Z,1.63
2022-12-12T16:41:14.448Z,1.65
2022-12-12T16:43:44.432Z,1.68
2022-12-12T16:46:20.821Z,1.53
2022-12-12T16:48:50.649Z,1.64
2022-12-12T16:51:23.466Z,1.57
2022-12-12T16:54:00.284Z,1.55
2022-12-12T16:56:29.560Z,1.32
2022-12-12T16:58:58.676Z,1.59
2022-12-12T17:04:16.952Z,1.67
2022-12-12T17:06:46.272Z,1.70
2022-12-12T17:09:17.557Z,1.72
2022-12-12T17:11:46.784Z,1.74
2022-12-12T17:16:55.715Z,1.70
2022-12-12T17:19:26.019Z,1.73
2022-12-12T17:21:55.050Z,1.81
2022-12-12T17:24:26.344Z,1.81
2022-12-12T17:27:00.625Z,1.79
2022-12-12T17:29:30.382Z,1.77
2022-12-12T17:31:59.929Z,1.74
2022-12-12T17:34:34.420Z,1.57
2022-12-12T17:37:03.752Z,1.69
2022-12-12T17:39:34.944Z,1.65
2022-12-12T17:42:04.140Z,1.66
2022-12-12T17:44:33.581Z,1.77
2022-12-12T17:47:03.221Z,1.73
2022-12-12T17:49:32.668Z,1.62
2022-12-12T17:52:03.079Z,1.62
2022-12-12T17:54:32.375Z,1.66
2022-12-12T17:57:03.485Z,1.64
2022-12-12T17:59:32.655Z,1.65
2022-12-12T18:02:01.822Z,1.65
2022-12-12T18:04:37.681Z,1.40
2022-12-12T18:07:07.188Z,1.61
2022-12-12T18:09:42.119Z,1.60
2022-12-12T18:12:13.278Z,1.60
2022-12-12T18:14:42.507Z,1.50
2022-12-12T18:17:11.664Z,1.63
2022-12-12T18:19:40.907Z,1.55
2022-12-12T18:22:10.348Z,1.56
2022-12-12T18:24:39.552Z,1.70
2022-12-12T18:27:08.779Z,1.74
2022-12-12T18:29:50.207Z,1.81
2022-12-12T18:32:19.366Z,1.48
2022-12-12T18:34:48.676Z,1.81
2022-12-12T18:37:18.031Z,1.74
2022-12-12T18:39:47.205Z,1.77
2022-12-12T18:42:21.637Z,1.79
2022-12-12T18:44:52.946Z,1.77
2022-12-12T18:47:23.597Z,1.74
2022-12-12T18:49:52.910Z,1.71
2022-12-12T18:52:22.081Z,1.72
2022-12-12T18:55:08.859Z,1.72
2022-12-12T18:57:38.047Z,1.66
2022-12-12T19:00:10.775Z,1.60
2022-12-12T19:05:31.625Z,1.67
2022-12-12T19:08:00.948Z,1.50
2022-12-12T19:10:30.232Z,1.54
2022-12-12T19:12:59.401Z,1.67
2022-12-12T19:15:30.568Z,1.68
2022-12-12T19:18:05.212Z,1.65
2022-12-12T19:20:34.299Z,1.67
2022-12-12T19:23:08.496Z,1.74
2022-12-12T19:25:42.550Z,1.80
2022-12-12T19:28:13.300Z,1.73
2022-12-12T19:30:44.464Z,1.62
2022-12-12T19:33:19.003Z,1.79
2022-12-12T19:35:48.253Z,1.70
2022-12-12T19:38:22.763Z,1.69
2022-12-12T19:40:58.873Z,1.72
2022-12-12T19:43:30.824Z,1.72
2022-12-12T19:46:06.479Z,1.82
2022-12-12T19:48:36.232Z,1.65
2022-12-12T19:51:10.474Z,1.66
2022-12-12T19:53:48.464Z,1.63
2022-12-12T19:56:25.688Z,1.63
2022-12-12T19:58:55.407Z,1.63
2022-12-12T20:01:33.417Z,1.54
2022-12-12T20:04:09.524Z,1.50
2022-12-12T20:06:45.404Z,1.24
2022-12-12T20:09:15.781Z,1.30
2022-12-12T20:11:45.672Z,1.29
2022-12-12T20:17:07.386Z,1.24
2022-12-12T20:19:36.616Z,1.22
2022-12-12T20:22:05.976Z,1.18
2022-12-12T20:24:37.039Z,1.16
2022-12-12T20:27:07.766Z,1.25
2022-12-12T20:29:37.332Z,1.24
2022-12-12T20:32:09.203Z,1.22
2022-12-12T20:34:38.403Z,1.34
2022-12-12T20:37:09.255Z,1.28
2022-12-12T20:39:43.798Z,1.17
2022-12-12T20:42:34.009Z,1.34
2022-12-12T20:45:03.524Z,1.33
2022-12-12T20:50:16.639Z,1.34
2022-12-12T20:52:45.882Z,1.32
2022-12-12T20:55:15.338Z,1.31
2022-12-12T20:57:45.129Z,1.34
2022-12-12T21:00:15.433Z,1.27
2022-12-12T21:02:47.082Z,1.23
2022-12-12T21:05:16.744Z,1.40
2022-12-12T21:07:46.097Z,1.38
2022-12-12T21:10:20.595Z,1.43
2022-12-12T21:12:49.773Z,1.49
2022-12-12T21:15:19.439Z,1.51
2022-12-12T21:17:51.319Z,1.49
2022-12-12T21:20:20.601Z,1.54
2022-12-12T21:22:49.876Z,1.46
2022-12-12T21:25:24.446Z,1.42
2022-12-12T21:27:53.733Z,1.47
2022-12-12T21:30:23.111Z,1.52
2022-12-12T21:32:54.368Z,1.50
2022-12-12T21:35:24.117Z,1.31
2022-12-12T21:37:53.375Z,1.48
2022-12-12T21:40:22.643Z,1.49
2022-12-12T21:42:52.006Z,1.45
2022-12-12T21:45:21.508Z,1.43
2022-12-12T21:47:55.852Z,1.35
2022-12-12T21:50:32.163Z,1.39
2022-12-12T21:53:19.549Z,1.37
2022-12-12T21:55:48.932Z,1.37
2022-12-12T21:58:18.386Z,1.36
2022-12-12T22:00:47.598Z,1.38
2022-12-12T22:03:16.757Z,1.39
2022-12-12T22:05:48.222Z,1.27
2022-12-12T22:08:18.735Z,1.44
2022-12-12T22:10:48.057Z,1.26
2022-12-12T22:13:29.681Z,1.40
2022-12-12T22:16:00.248Z,1.36
2022-12-12T22:18:30.092Z,1.28
2022-12-12T22:21:08.190Z,1.19
2022-12-12T22:23:40.535Z,1.36
2022-12-12T22:26:17.251Z,1.39
2022-12-12T22:28:46.561Z,1.21
2022-12-12T22:31:15.851Z,1.29
2022-12-12T22:33:50.807Z,1.26
2022-12-12T22:36:26.380Z,1.29
2022-12-12T22:38:56.770Z,1.27
2022-12-12T22:41:28.414Z,1.30
2022-12-12T22:43:59.511Z,1.15
2022-12-12T22:46:29.363Z,1.24
2022-12-12T22:49:00.748Z,1.22
2022-12-12T22:51:33.768Z,1.18
2022-12-12T22:54:10.413Z,1.17
2022-12-12T22:56:40.923Z,1.13
2022-12-12T22:59:12.431Z,1.14
2022-12-12T23:01:43.696Z,1.12
2022-12-12T23:04:15.107Z,1.13
2022-12-12T23:06:46.967Z,1.09
2022-12-12T23:09:23.770Z,1.11
2022-12-12T23:11:53.002Z,1.08
2022-12-12T23:14:25.858Z,1.09
2022-12-12T23:16:56.287Z,0.94
2022-12-12T23:19:33.447Z,1.00
2022-12-12T23:22:04.717Z,0.99
2022-12-12T23:24:39.652Z,0.92
2022-12-12T23:27:08.791Z,0.93
2022-12-12T23:29:38.187Z,0.88
2022-12-12T23:32:07.555Z,0.92
2022-12-12T23:34:36.823Z,0.89
2022-12-12T23:37:07.893Z,0.96
2022-12-12T23:39:37.493Z,1.01
2022-12-12T23:42:06.719Z,1.05
2022-12-12T23:44:35.885Z,1.03
2022-12-12T23:47:04.996Z,0.99
2022-12-12T23:49:39.177Z,0.98
2022-12-12T23:52:10.351Z,1.00
2022-12-12T23:54:44.873Z,0.99
2022-12-12T23:57:14.469Z,1.01
2022-12-12T23:59:43.846Z,1.01
